sensor_id;sensor_type;location;lat;lon;timestamp;P1;durP1;ratioP1;P2;durP2;ratioP2
73852;SDS011;62191;51.548;5.688;2023-02-11T00:01:28;10.20;;;4.53;;
73852;SDS011;62191;51.548;5.688;2023-02-11T00:03:59;7.27;;;3.97;;
73852;SDS011;62191;51.548;5.688;2023-02-11T00:06:28;9.37;;;3.30;;
73852;SDS011;62191;51.548;5.688;2023-02-11T00:08:56;6.43;;;3.67;;
73852;SDS011;62191;51.548;5.688;2023-02-11T00:11:24;5.57;;;3.83;;
73852;SDS011;62191;51.548;5.688;2023-02-11T00:13:53;6.80;;;3.67;;
73852;SDS011;62191;51.548;5.688;2023-02-11T00:16:21;7.43;;;4.40;;
73852;SDS011;62191;51.548;5.688;2023-02-11T00:18:48;5.53;;;3.73;;
73852;SDS011;62191;51.548;5.688;2023-02-11T00:21:19;5.83;;;3.93;;
73852;SDS011;62191;51.548;5.688;2023-02-11T00:23:50;4.20;;;3.27;;
73852;SDS011;62191;51.548;5.688;2023-02-11T00:26:23;6.63;;;3.67;;
73852;SDS011;62191;51.548;5.688;2023-02-11T00:28:52;9.77;;;4.43;;
73852;SDS011;62191;51.548;5.688;2023-02-11T00:31:22;6.93;;;3.73;;
73852;SDS011;62191;51.548;5.688;2023-02-11T00:33:49;8.00;;;3.30;;
73852;SDS011;62191;51.548;5.688;2023-02-11T00:36:18;8.53;;;4.93;;
73852;SDS011;62191;51.548;5.688;2023-02-11T00:38:49;8.80;;;3.80;;
73852;SDS011;62191;51.548;5.688;2023-02-11T00:41:17;7.00;;;3.17;;
73852;SDS011;62191;51.548;5.688;2023-02-11T00:43:45;6.77;;;3.77;;
73852;SDS011;62191;51.548;5.688;2023-02-11T00:46:13;8.33;;;3.53;;
73852;SDS011;62191;51.548;5.688;2023-02-11T00:48:41;5.27;;;3.70;;
73852;SDS011;62191;51.548;5.688;2023-02-11T00:51:08;7.23;;;3.50;;
73852;SDS011;62191;51.548;5.688;2023-02-11T00:53:36;6.73;;;4.30;;
73852;SDS011;62191;51.548;5.688;2023-02-11T00:56:03;6.20;;;3.93;;
73852;SDS011;62191;51.548;5.688;2023-02-11T00:58:31;17.47;;;4.07;;
73852;SDS011;62191;51.548;5.688;2023-02-11T01:00:59;4.77;;;3.07;;
73852;SDS011;62191;51.548;5.688;2023-02-11T01:03:26;5.80;;;3.43;;
73852;SDS011;62191;51.548;5.688;2023-02-11T01:05:53;7.70;;;4.10;;
73852;SDS011;62191;51.548;5.688;2023-02-11T01:08:21;4.60;;;3.27;;
73852;SDS011;62191;51.548;5.688;2023-02-11T01:11:00;7.87;;;4.17;;
73852;SDS011;62191;51.548;5.688;2023-02-11T01:13:25;5.77;;;3.97;;
73852;SDS011;62191;51.548;5.688;2023-02-11T01:15:52;5.13;;;3.13;;
73852;SDS011;62191;51.548;5.688;2023-02-11T01:18:20;7.07;;;3.27;;
73852;SDS011;62191;51.548;5.688;2023-02-11T01:20:47;3.43;;;2.37;;
73852;SDS011;62191;51.548;5.688;2023-02-11T01:23:16;10.23;;;3.23;;
73852;SDS011;62191;51.548;5.688;2023-02-11T01:25:43;3.17;;;2.50;;
73852;SDS011;62191;51.548;5.688;2023-02-11T01:28:18;4.97;;;3.00;;
73852;SDS011;62191;51.548;5.688;2023-02-11T01:30:47;4.83;;;3.70;;
73852;SDS011;62191;51.548;5.688;2023-02-11T01:33:14;6.57;;;2.70;;
73852;SDS011;62191;51.548;5.688;2023-02-11T01:35:42;5.97;;;3.33;;
73852;SDS011;62191;51.548;5.688;2023-02-11T01:38:24;5.27;;;3.70;;
73852;SDS011;62191;51.548;5.688;2023-02-11T01:40:49;6.57;;;4.10;;
73852;SDS011;62191;51.548;5.688;2023-02-11T01:43:18;4.87;;;2.93;;
73852;SDS011;62191;51.548;5.688;2023-02-11T01:48:33;6.33;;;3.13;;
73852;SDS011;62191;51.548;5.688;2023-02-11T01:51:03;4.87;;;2.77;;
73852;SDS011;62191;51.548;5.688;2023-02-11T01:53:32;4.87;;;2.60;;
73852;SDS011;62191;51.548;5.688;2023-02-11T01:56:17;5.23;;;3.40;;
73852;SDS011;62191;51.548;5.688;2023-02-11T01:59:13;5.83;;;2.80;;
73852;SDS011;62191;51.548;5.688;2023-02-11T02:01:40;10.23;;;3.40;;
73852;SDS011;62191;51.548;5.688;2023-02-11T02:04:11;7.07;;;2.93;;
73852;SDS011;62191;51.548;5.688;2023-02-11T02:06:46;6.00;;;4.30;;
73852;SDS011;62191;51.548;5.688;2023-02-11T02:09:24;7.00;;;3.43;;
73852;SDS011;62191;51.548;5.688;2023-02-11T02:11:52;4.23;;;2.67;;
73852;SDS011;62191;51.548;5.688;2023-02-11T02:14:20;3.77;;;2.67;;
73852;SDS011;62191;51.548;5.688;2023-02-11T02:16:47;5.47;;;2.37;;
73852;SDS011;62191;51.548;5.688;2023-02-11T02:27:49;7.07;;;2.63;;
73852;SDS011;62191;51.548;5.688;2023-02-11T02:38:56;7.17;;;2.57;;
73852;SDS011;62191;51.548;5.688;2023-02-11T02:41:29;4.97;;;2.93;;
73852;SDS011;62191;51.548;5.688;2023-02-11T02:43:58;3.10;;;2.17;;
73852;SDS011;62191;51.548;5.688;2023-02-11T02:46:26;7.83;;;3.63;;
73852;SDS011;62191;51.548;5.688;2023-02-11T02:48:58;5.10;;;2.73;;
73852;SDS011;62191;51.548;5.688;2023-02-11T02:56:55;9.33;;;2.50;;
73852;SDS011;62191;51.548;5.688;2023-02-11T02:59:36;4.60;;;2.47;;
73852;SDS011;62191;51.548;5.688;2023-02-11T03:07:26;3.47;;;2.80;;
73852;SDS011;62191;51.548;5.688;2023-02-11T03:10:01;4.97;;;2.50;;
73852;SDS011;62191;51.548;5.688;2023-02-11T03:12:26;4.23;;;3.00;;
73852;SDS011;62191;51.548;5.688;2023-02-11T03:14:55;6.37;;;3.00;;
73852;SDS011;62191;51.548;5.688;2023-02-11T03:17:22;3.73;;;2.53;;
73852;SDS011;62191;51.548;5.688;2023-02-11T03:19:52;3.30;;;2.43;;
73852;SDS011;62191;51.548;5.688;2023-02-11T03:22:21;9.50;;;5.07;;
73852;SDS011;62191;51.548;5.688;2023-02-11T03:24:49;5.63;;;2.70;;
73852;SDS011;62191;51.548;5.688;2023-02-11T03:27:38;6.33;;;2.80;;
73852;SDS011;62191;51.548;5.688;2023-02-11T03:29:56;5.20;;;2.17;;
73852;SDS011;62191;51.548;5.688;2023-02-11T03:32:27;6.00;;;2.10;;
73852;SDS011;62191;51.548;5.688;2023-02-11T03:38:05;4.90;;;2.70;;
73852;SDS011;62191;51.548;5.688;2023-02-11T03:40:38;11.33;;;3.50;;
73852;SDS011;62191;51.548;5.688;2023-02-11T03:43:07;4.63;;;2.97;;
73852;SDS011;62191;51.548;5.688;2023-02-11T03:45:36;8.60;;;2.80;;
73852;SDS011;62191;51.548;5.688;2023-02-11T03:48:19;2.97;;;2.57;;
73852;SDS011;62191;51.548;5.688;2023-02-11T03:50:53;3.80;;;2.13;;
73852;SDS011;62191;51.548;5.688;2023-02-11T03:53:20;9.37;;;4.07;;
73852;SDS011;62191;51.548;5.688;2023-02-11T03:55:49;5.23;;;2.67;;
73852;SDS011;62191;51.548;5.688;2023-02-11T03:58:17;10.40;;;4.03;;
73852;SDS011;62191;51.548;5.688;2023-02-11T04:00:44;5.90;;;3.20;;
73852;SDS011;62191;51.548;5.688;2023-02-11T04:03:12;2.53;;;2.30;;
73852;SDS011;62191;51.548;5.688;2023-02-11T04:05:39;2.23;;;2.03;;
73852;SDS011;62191;51.548;5.688;2023-02-11T04:08:06;14.10;;;4.77;;
73852;SDS011;62191;51.548;5.688;2023-02-11T04:10:34;4.40;;;2.37;;
73852;SDS011;62191;51.548;5.688;2023-02-11T04:13:01;3.83;;;2.73;;
73852;SDS011;62191;51.548;5.688;2023-02-11T04:15:29;5.23;;;2.93;;
73852;SDS011;62191;51.548;5.688;2023-02-11T04:17:56;4.20;;;3.20;;
73852;SDS011;62191;51.548;5.688;2023-02-11T04:20:23;5.77;;;2.70;;
73852;SDS011;62191;51.548;5.688;2023-02-11T04:22:51;3.23;;;2.17;;
73852;SDS011;62191;51.548;5.688;2023-02-11T04:25:18;3.23;;;2.57;;
73852;SDS011;62191;51.548;5.688;2023-02-11T04:27:45;3.27;;;2.87;;
73852;SDS011;62191;51.548;5.688;2023-02-11T04:30:12;2.77;;;2.30;;
73852;SDS011;62191;51.548;5.688;2023-02-11T04:32:40;7.10;;;2.87;;
73852;SDS011;62191;51.548;5.688;2023-02-11T04:35:07;5.00;;;2.43;;
73852;SDS011;62191;51.548;5.688;2023-02-11T04:37:34;3.27;;;1.73;;
73852;SDS011;62191;51.548;5.688;2023-02-11T04:40:02;7.27;;;2.63;;
73852;SDS011;62191;51.548;5.688;2023-02-11T04:42:30;28.03;;;4.13;;
73852;SDS011;62191;51.548;5.688;2023-02-11T04:44:59;5.73;;;2.93;;
73852;SDS011;62191;51.548;5.688;2023-02-11T04:47:26;4.27;;;2.90;;
73852;SDS011;62191;51.548;5.688;2023-02-11T04:49:53;3.27;;;2.50;;
73852;SDS011;62191;51.548;5.688;2023-02-11T04:52:21;5.03;;;3.60;;
73852;SDS011;62191;51.548;5.688;2023-02-11T04:54:48;9.80;;;3.20;;
73852;SDS011;62191;51.548;5.688;2023-02-11T04:57:15;5.00;;;3.07;;
73852;SDS011;62191;51.548;5.688;2023-02-11T04:59:43;5.83;;;3.13;;
73852;SDS011;62191;51.548;5.688;2023-02-11T05:02:10;6.90;;;3.87;;
73852;SDS011;62191;51.548;5.688;2023-02-11T05:04:37;16.47;;;4.40;;
73852;SDS011;62191;51.548;5.688;2023-02-11T05:07:05;6.83;;;2.53;;
73852;SDS011;62191;51.548;5.688;2023-02-11T05:09:32;3.23;;;2.20;;
73852;SDS011;62191;51.548;5.688;2023-02-11T05:11:59;5.27;;;2.80;;
73852;SDS011;62191;51.548;5.688;2023-02-11T05:14:27;8.87;;;2.77;;
73852;SDS011;62191;51.548;5.688;2023-02-11T05:16:54;3.27;;;2.50;;
73852;SDS011;62191;51.548;5.688;2023-02-11T05:19:21;4.87;;;3.10;;
73852;SDS011;62191;51.548;5.688;2023-02-11T05:21:48;5.80;;;2.43;;
73852;SDS011;62191;51.548;5.688;2023-02-11T05:24:19;7.13;;;2.93;;
73852;SDS011;62191;51.548;5.688;2023-02-11T05:26:46;4.97;;;2.93;;
73852;SDS011;62191;51.548;5.688;2023-02-11T05:29:13;5.67;;;3.17;;
73852;SDS011;62191;51.548;5.688;2023-02-11T05:31:41;4.93;;;2.57;;
73852;SDS011;62191;51.548;5.688;2023-02-11T05:34:08;6.27;;;3.90;;
73852;SDS011;62191;51.548;5.688;2023-02-11T05:36:35;3.93;;;2.50;;
73852;SDS011;62191;51.548;5.688;2023-02-11T05:39:03;4.83;;;2.97;;
73852;SDS011;62191;51.548;5.688;2023-02-11T05:41:30;5.87;;;3.30;;
73852;SDS011;62191;51.548;5.688;2023-02-11T05:43:57;19.20;;;3.30;;
73852;SDS011;62191;51.548;5.688;2023-02-11T05:46:25;14.00;;;3.07;;
73852;SDS011;62191;51.548;5.688;2023-02-11T05:48:52;7.40;;;4.33;;
73852;SDS011;62191;51.548;5.688;2023-02-11T05:51:21;5.50;;;2.50;;
73852;SDS011;62191;51.548;5.688;2023-02-11T05:53:49;7.23;;;3.57;;
73852;SDS011;62191;51.548;5.688;2023-02-11T05:56:17;4.53;;;3.33;;
73852;SDS011;62191;51.548;5.688;2023-02-11T05:58:44;5.17;;;2.97;;
73852;SDS011;62191;51.548;5.688;2023-02-11T06:01:12;13.93;;;3.33;;
73852;SDS011;62191;51.548;5.688;2023-02-11T06:03:39;6.40;;;3.23;;
73852;SDS011;62191;51.548;5.688;2023-02-11T06:06:09;4.17;;;2.37;;
73852;SDS011;62191;51.548;5.688;2023-02-11T06:08:37;5.00;;;2.77;;
73852;SDS011;62191;51.548;5.688;2023-02-11T06:11:05;10.50;;;4.23;;
73852;SDS011;62191;51.548;5.688;2023-02-11T06:13:33;4.97;;;3.00;;
73852;SDS011;62191;51.548;5.688;2023-02-11T06:16:01;4.87;;;2.70;;
73852;SDS011;62191;51.548;5.688;2023-02-11T06:18:28;7.80;;;4.20;;
73852;SDS011;62191;51.548;5.688;2023-02-11T06:20:58;8.77;;;3.60;;
73852;SDS011;62191;51.548;5.688;2023-02-11T06:23:26;5.87;;;3.47;;
73852;SDS011;62191;51.548;5.688;2023-02-11T06:25:53;6.23;;;2.97;;
73852;SDS011;62191;51.548;5.688;2023-02-11T06:28:21;5.93;;;3.70;;
73852;SDS011;62191;51.548;5.688;2023-02-11T06:30:48;3.37;;;2.60;;
73852;SDS011;62191;51.548;5.688;2023-02-11T06:33:15;11.67;;;3.87;;
73852;SDS011;62191;51.548;5.688;2023-02-11T06:35:44;7.10;;;3.80;;
73852;SDS011;62191;51.548;5.688;2023-02-11T06:38:11;8.73;;;4.27;;
73852;SDS011;62191;51.548;5.688;2023-02-11T06:40:38;8.13;;;3.93;;
73852;SDS011;62191;51.548;5.688;2023-02-11T06:43:06;10.67;;;4.13;;
73852;SDS011;62191;51.548;5.688;2023-02-11T06:45:34;10.03;;;4.23;;
73852;SDS011;62191;51.548;5.688;2023-02-11T06:48:02;15.00;;;4.23;;
73852;SDS011;62191;51.548;5.688;2023-02-11T06:50:29;3.43;;;2.50;;
73852;SDS011;62191;51.548;5.688;2023-02-11T06:52:57;7.07;;;4.07;;
73852;SDS011;62191;51.548;5.688;2023-02-11T06:55:25;6.23;;;4.40;;
73852;SDS011;62191;51.548;5.688;2023-02-11T06:57:52;6.07;;;3.67;;
73852;SDS011;62191;51.548;5.688;2023-02-11T07:00:20;8.33;;;4.03;;
73852;SDS011;62191;51.548;5.688;2023-02-11T07:02:47;7.23;;;3.93;;
73852;SDS011;62191;51.548;5.688;2023-02-11T07:05:14;9.77;;;4.07;;
73852;SDS011;62191;51.548;5.688;2023-02-11T07:07:41;9.50;;;4.60;;
73852;SDS011;62191;51.548;5.688;2023-02-11T07:10:09;7.57;;;4.30;;
73852;SDS011;62191;51.548;5.688;2023-02-11T07:12:36;11.73;;;3.63;;
73852;SDS011;62191;51.548;5.688;2023-02-11T07:15:03;6.60;;;4.73;;
73852;SDS011;62191;51.548;5.688;2023-02-11T07:19:59;15.83;;;5.27;;
73852;SDS011;62191;51.548;5.688;2023-02-11T07:22:26;11.60;;;4.57;;
73852;SDS011;62191;51.548;5.688;2023-02-11T07:24:54;9.23;;;5.27;;
73852;SDS011;62191;51.548;5.688;2023-02-11T07:27:21;12.77;;;5.13;;
73852;SDS011;62191;51.548;5.688;2023-02-11T07:29:48;13.67;;;6.43;;
73852;SDS011;62191;51.548;5.688;2023-02-11T07:32:16;10.90;;;5.67;;
73852;SDS011;62191;51.548;5.688;2023-02-11T07:34:43;8.73;;;4.53;;
73852;SDS011;62191;51.548;5.688;2023-02-11T07:37:12;16.70;;;5.73;;
73852;SDS011;62191;51.548;5.688;2023-02-11T07:39:39;8.87;;;5.03;;
73852;SDS011;62191;51.548;5.688;2023-02-11T07:42:06;9.20;;;5.97;;
73852;SDS011;62191;51.548;5.688;2023-02-11T07:44:34;15.27;;;5.47;;
73852;SDS011;62191;51.548;5.688;2023-02-11T07:47:01;11.57;;;6.43;;
73852;SDS011;62191;51.548;5.688;2023-02-11T07:49:28;12.80;;;6.93;;
73852;SDS011;62191;51.548;5.688;2023-02-11T07:51:56;14.60;;;6.40;;
73852;SDS011;62191;51.548;5.688;2023-02-11T07:54:23;11.97;;;5.43;;
73852;SDS011;62191;51.548;5.688;2023-02-11T07:56:50;15.33;;;7.27;;
73852;SDS011;62191;51.548;5.688;2023-02-11T07:59:18;12.87;;;6.43;;
73852;SDS011;62191;51.548;5.688;2023-02-11T08:01:46;16.60;;;8.27;;
73852;SDS011;62191;51.548;5.688;2023-02-11T08:04:16;11.20;;;5.23;;
73852;SDS011;62191;51.548;5.688;2023-02-11T08:06:43;8.03;;;4.03;;
73852;SDS011;62191;51.548;5.688;2023-02-11T08:09:13;13.60;;;5.90;;
73852;SDS011;62191;51.548;5.688;2023-02-11T08:11:42;16.73;;;6.17;;
73852;SDS011;62191;51.548;5.688;2023-02-11T08:14:10;12.13;;;4.80;;
73852;SDS011;62191;51.548;5.688;2023-02-11T08:16:38;14.27;;;6.77;;
73852;SDS011;62191;51.548;5.688;2023-02-11T08:19:06;24.40;;;7.47;;
73852;SDS011;62191;51.548;5.688;2023-02-11T08:21:40;17.57;;;8.23;;
73852;SDS011;62191;51.548;5.688;2023-02-11T08:24:09;14.70;;;6.43;;
73852;SDS011;62191;51.548;5.688;2023-02-11T08:26:37;10.00;;;4.63;;
73852;SDS011;62191;51.548;5.688;2023-02-11T08:29:08;14.00;;;7.47;;
73852;SDS011;62191;51.548;5.688;2023-02-11T08:31:36;16.03;;;6.70;;
73852;SDS011;62191;51.548;5.688;2023-02-11T08:34:05;12.67;;;6.83;;
73852;SDS011;62191;51.548;5.688;2023-02-11T08:36:34;16.07;;;7.53;;
73852;SDS011;62191;51.548;5.688;2023-02-11T08:39:04;11.90;;;6.20;;
73852;SDS011;62191;51.548;5.688;2023-02-11T08:41:33;14.67;;;6.60;;
73852;SDS011;62191;51.548;5.688;2023-02-11T08:44:01;16.13;;;6.87;;
73852;SDS011;62191;51.548;5.688;2023-02-11T08:46:28;15.50;;;7.90;;
73852;SDS011;62191;51.548;5.688;2023-02-11T08:48:55;13.17;;;6.73;;
73852;SDS011;62191;51.548;5.688;2023-02-11T08:51:24;11.73;;;4.60;;
73852;SDS011;62191;51.548;5.688;2023-02-11T08:53:54;12.10;;;7.27;;
73852;SDS011;62191;51.548;5.688;2023-02-11T08:56:22;13.97;;;7.97;;
73852;SDS011;62191;51.548;5.688;2023-02-11T08:58:51;15.13;;;6.03;;
73852;SDS011;62191;51.548;5.688;2023-02-11T09:01:20;13.27;;;5.83;;
73852;SDS011;62191;51.548;5.688;2023-02-11T09:03:50;15.37;;;6.20;;
73852;SDS011;62191;51.548;5.688;2023-02-11T09:06:18;16.70;;;7.93;;
73852;SDS011;62191;51.548;5.688;2023-02-11T09:08:48;16.63;;;6.77;;
73852;SDS011;62191;51.548;5.688;2023-02-11T09:11:17;19.30;;;6.90;;
73852;SDS011;62191;51.548;5.688;2023-02-11T09:13:49;14.23;;;5.87;;
73852;SDS011;62191;51.548;5.688;2023-02-11T09:16:21;15.77;;;7.47;;
73852;SDS011;62191;51.548;5.688;2023-02-11T09:18:51;15.25;;;6.75;;
73852;SDS011;62191;51.548;5.688;2023-02-11T09:21:19;14.33;;;6.07;;
73852;SDS011;62191;51.548;5.688;2023-02-11T09:23:46;13.10;;;5.97;;
73852;SDS011;62191;51.548;5.688;2023-02-11T09:28:46;20.77;;;8.20;;
73852;SDS011;62191;51.548;5.688;2023-02-11T09:31:14;17.47;;;7.73;;
73852;SDS011;62191;51.548;5.688;2023-02-11T09:33:45;19.13;;;6.43;;
73852;SDS011;62191;51.548;5.688;2023-02-11T09:36:18;14.43;;;5.70;;
73852;SDS011;62191;51.548;5.688;2023-02-11T09:38:53;16.90;;;7.07;;
73852;SDS011;62191;51.548;5.688;2023-02-11T09:44:17;14.43;;;6.97;;
73852;SDS011;62191;51.548;5.688;2023-02-11T09:46:39;21.63;;;7.97;;
73852;SDS011;62191;51.548;5.688;2023-02-11T09:49:10;17.33;;;7.30;;
73852;SDS011;62191;51.548;5.688;2023-02-11T09:51:42;15.50;;;6.90;;
73852;SDS011;62191;51.548;5.688;2023-02-11T09:54:14;17.10;;;6.65;;
73852;SDS011;62191;51.548;5.688;2023-02-11T09:56:45;21.73;;;7.93;;
73852;SDS011;62191;51.548;5.688;2023-02-11T09:59:13;15.17;;;7.37;;
73852;SDS011;62191;51.548;5.688;2023-02-11T10:04:21;18.67;;;9.13;;
73852;SDS011;62191;51.548;5.688;2023-02-11T10:06:55;18.93;;;8.73;;
73852;SDS011;62191;51.548;5.688;2023-02-11T10:12:27;16.80;;;7.37;;
73852;SDS011;62191;51.548;5.688;2023-02-11T10:15:05;17.27;;;7.00;;
73852;SDS011;62191;51.548;5.688;2023-02-11T10:20:29;15.90;;;6.67;;
73852;SDS011;62191;51.548;5.688;2023-02-11T10:23:30;15.13;;;7.90;;
73852;SDS011;62191;51.548;5.688;2023-02-11T10:26:07;13.23;;;6.60;;
73852;SDS011;62191;51.548;5.688;2023-02-11T10:28:33;16.43;;;7.93;;
73852;SDS011;62191;51.548;5.688;2023-02-11T10:31:12;17.57;;;7.27;;
73852;SDS011;62191;51.548;5.688;2023-02-11T10:36:15;14.63;;;6.90;;
73852;SDS011;62191;51.548;5.688;2023-02-11T10:38:39;37.97;;;8.10;;
73852;SDS011;62191;51.548;5.688;2023-02-11T10:41:08;23.00;;;8.73;;
73852;SDS011;62191;51.548;5.688;2023-02-11T10:43:36;19.63;;;8.57;;
73852;SDS011;62191;51.548;5.688;2023-02-11T10:46:03;22.83;;;8.60;;
73852;SDS011;62191;51.548;5.688;2023-02-11T10:48:39;20.63;;;7.80;;
73852;SDS011;62191;51.548;5.688;2023-02-11T10:51:26;15.97;;;8.60;;
73852;SDS011;62191;51.548;5.688;2023-02-11T10:56:37;22.40;;;7.53;;
73852;SDS011;62191;51.548;5.688;2023-02-11T11:01:59;22.37;;;7.83;;
73852;SDS011;62191;51.548;5.688;2023-02-11T11:07:14;15.47;;;9.43;;
73852;SDS011;62191;51.548;5.688;2023-02-11T11:12:31;20.23;;;7.10;;
73852;SDS011;62191;51.548;5.688;2023-02-11T11:17:42;21.30;;;10.07;;
73852;SDS011;62191;51.548;5.688;2023-02-11T11:20:21;24.87;;;9.13;;
73852;SDS011;62191;51.548;5.688;2023-02-11T11:23:07;22.70;;;7.83;;
73852;SDS011;62191;51.548;5.688;2023-02-11T11:25:37;25.17;;;9.50;;
73852;SDS011;62191;51.548;5.688;2023-02-11T11:28:08;14.00;;;8.60;;
73852;SDS011;62191;51.548;5.688;2023-02-11T11:30:46;16.67;;;7.20;;
73852;SDS011;62191;51.548;5.688;2023-02-11T11:33:20;29.40;;;9.23;;
73852;SDS011;62191;51.548;5.688;2023-02-11T11:35:58;20.07;;;8.67;;
73852;SDS011;62191;51.548;5.688;2023-02-11T11:38:23;15.93;;;8.60;;
73852;SDS011;62191;51.548;5.688;2023-02-11T11:46:22;20.70;;;7.83;;
73852;SDS011;62191;51.548;5.688;2023-02-11T11:48:56;19.33;;;8.77;;
73852;SDS011;62191;51.548;5.688;2023-02-11T11:51:29;20.88;;;6.87;;
73852;SDS011;62191;51.548;5.688;2023-02-11T11:53:59;22.07;;;8.30;;
73852;SDS011;62191;51.548;5.688;2023-02-11T11:56:31;16.37;;;7.43;;
73852;SDS011;62191;51.548;5.688;2023-02-11T11:59:00;21.77;;;8.23;;
73852;SDS011;62191;51.548;5.688;2023-02-11T12:01:36;20.20;;;8.93;;
73852;SDS011;62191;51.548;5.688;2023-02-11T12:04:18;15.80;;;7.23;;
73852;SDS011;62191;51.548;5.688;2023-02-11T12:09:31;21.40;;;8.57;;
73852;SDS011;62191;51.548;5.688;2023-02-11T12:12:02;20.93;;;8.30;;
73852;SDS011;62191;51.548;5.688;2023-02-11T12:17:30;13.03;;;6.93;;
73852;SDS011;62191;51.548;5.688;2023-02-11T12:20:01;21.13;;;8.97;;
73852;SDS011;62191;51.548;5.688;2023-02-11T12:25:45;16.23;;;8.30;;
73852;SDS011;62191;51.548;5.688;2023-02-11T12:28:16;13.73;;;6.07;;
73852;SDS011;62191;51.548;5.688;2023-02-11T12:31:02;15.27;;;6.87;;
73852;SDS011;62191;51.548;5.688;2023-02-11T12:34:03;17.67;;;7.97;;
73852;SDS011;62191;51.548;5.688;2023-02-11T12:36:51;15.97;;;7.80;;
73852;SDS011;62191;51.548;5.688;2023-02-11T12:45:03;18.03;;;6.67;;
73852;SDS011;62191;51.548;5.688;2023-02-11T12:47:52;13.03;;;5.93;;
73852;SDS011;62191;51.548;5.688;2023-02-11T12:50:24;15.40;;;6.33;;
73852;SDS011;62191;51.548;5.688;2023-02-11T12:56:24;18.70;;;8.83;;
73852;SDS011;62191;51.548;5.688;2023-02-11T12:59:30;16.55;;;6.92;;
73852;SDS011;62191;51.548;5.688;2023-02-11T13:02:00;30.75;;;9.00;;
73852;SDS011;62191;51.548;5.688;2023-02-11T13:07:07;17.17;;;6.80;;
73852;SDS011;62191;51.548;5.688;2023-02-11T13:09:43;15.77;;;6.03;;
73852;SDS011;62191;51.548;5.688;2023-02-11T13:12:12;12.88;;;7.00;;
73852;SDS011;62191;51.548;5.688;2023-02-11T13:14:59;16.17;;;6.05;;
73852;SDS011;62191;51.548;5.688;2023-02-11T13:17:33;13.83;;;6.58;;
73852;SDS011;62191;51.548;5.688;2023-02-11T13:20:12;17.52;;;6.47;;
73852;SDS011;62191;51.548;5.688;2023-02-11T13:22:43;13.77;;;7.37;;
73852;SDS011;62191;51.548;5.688;2023-02-11T13:30:59;15.47;;;6.57;;
73852;SDS011;62191;51.548;5.688;2023-02-11T13:33:34;15.35;;;6.87;;
73852;SDS011;62191;51.548;5.688;2023-02-11T13:38:35;19.65;;;6.45;;
73852;SDS011;62191;51.548;5.688;2023-02-11T13:41:22;16.12;;;7.25;;
73852;SDS011;62191;51.548;5.688;2023-02-11T13:46:47;14.95;;;6.92;;
73852;SDS011;62191;51.548;5.688;2023-02-11T13:49:21;14.17;;;5.93;;
73852;SDS011;62191;51.548;5.688;2023-02-11T13:51:56;11.60;;;5.42;;
73852;SDS011;62191;51.548;5.688;2023-02-11T13:54:27;7.97;;;4.90;;
73852;SDS011;62191;51.548;5.688;2023-02-11T13:59:53;13.25;;;5.53;;
73852;SDS011;62191;51.548;5.688;2023-02-11T14:02:23;11.63;;;5.72;;
73852;SDS011;62191;51.548;5.688;2023-02-11T14:08:14;12.23;;;5.35;;
73852;SDS011;62191;51.548;5.688;2023-02-11T14:11:02;11.20;;;5.10;;
73852;SDS011;62191;51.548;5.688;2023-02-11T14:14:00;15.53;;;7.97;;
73852;SDS011;62191;51.548;5.688;2023-02-11T14:16:18;23.60;;;5.85;;
73852;SDS011;62191;51.548;5.688;2023-02-11T14:21:21;13.40;;;4.83;;
73852;SDS011;62191;51.548;5.688;2023-02-11T14:37:56;12.03;;;6.63;;
73852;SDS011;62191;51.548;5.688;2023-02-11T14:40:30;11.97;;;6.00;;
73852;SDS011;62191;51.548;5.688;2023-02-11T14:43:11;12.98;;;6.75;;
73852;SDS011;62191;51.548;5.688;2023-02-11T14:45:34;17.60;;;6.33;;
73852;SDS011;62191;51.548;5.688;2023-02-11T14:48:15;13.05;;;5.12;;
73852;SDS011;62191;51.548;5.688;2023-02-11T14:50:44;12.28;;;6.47;;
73852;SDS011;62191;51.548;5.688;2023-02-11T14:53:17;15.93;;;6.10;;
73852;SDS011;62191;51.548;5.688;2023-02-11T14:55:50;13.98;;;6.12;;
73852;SDS011;62191;51.548;5.688;2023-02-11T14:58:22;14.33;;;5.90;;
73852;SDS011;62191;51.548;5.688;2023-02-11T15:00:57;16.55;;;7.87;;
73852;SDS011;62191;51.548;5.688;2023-02-11T15:03:37;12.30;;;5.05;;
73852;SDS011;62191;51.548;5.688;2023-02-11T15:06:07;9.98;;;5.17;;
73852;SDS011;62191;51.548;5.688;2023-02-11T15:08:52;13.83;;;5.75;;
73852;SDS011;62191;51.548;5.688;2023-02-11T15:11:22;14.07;;;7.28;;
73852;SDS011;62191;51.548;5.688;2023-02-11T15:13:50;10.67;;;4.77;;
73852;SDS011;62191;51.548;5.688;2023-02-11T15:16:22;11.73;;;5.83;;
73852;SDS011;62191;51.548;5.688;2023-02-11T15:18:51;11.05;;;5.80;;
73852;SDS011;62191;51.548;5.688;2023-02-11T15:21:31;12.30;;;5.47;;
73852;SDS011;62191;51.548;5.688;2023-02-11T15:23:57;11.80;;;5.37;;
73852;SDS011;62191;51.548;5.688;2023-02-11T15:26:31;13.72;;;5.78;;
73852;SDS011;62191;51.548;5.688;2023-02-11T15:28:59;17.48;;;6.10;;
73852;SDS011;62191;51.548;5.688;2023-02-11T15:31:27;12.07;;;5.17;;
73852;SDS011;62191;51.548;5.688;2023-02-11T15:33:54;6.60;;;3.95;;
73852;SDS011;62191;51.548;5.688;2023-02-11T15:36:23;14.87;;;6.58;;
73852;SDS011;62191;51.548;5.688;2023-02-11T15:41:41;10.53;;;5.57;;
73852;SDS011;62191;51.548;5.688;2023-02-11T15:44:28;16.13;;;6.63;;
73852;SDS011;62191;51.548;5.688;2023-02-11T15:46:56;11.18;;;5.75;;
73852;SDS011;62191;51.548;5.688;2023-02-11T15:49:24;11.57;;;4.90;;
73852;SDS011;62191;51.548;5.688;2023-02-11T15:51:52;9.83;;;5.57;;
73852;SDS011;62191;51.548;5.688;2023-02-11T15:54:22;12.23;;;4.97;;
73852;SDS011;62191;51.548;5.688;2023-02-11T15:56:52;10.10;;;3.87;;
73852;SDS011;62191;51.548;5.688;2023-02-11T15:59:26;14.50;;;6.58;;
73852;SDS011;62191;51.548;5.688;2023-02-11T16:02:04;10.90;;;5.67;;
73852;SDS011;62191;51.548;5.688;2023-02-11T16:04:32;9.07;;;5.30;;
73852;SDS011;62191;51.548;5.688;2023-02-11T16:07:00;14.67;;;6.40;;
73852;SDS011;62191;51.548;5.688;2023-02-11T16:09:34;11.93;;;5.83;;
73852;SDS011;62191;51.548;5.688;2023-02-11T16:12:19;9.33;;;5.58;;
73852;SDS011;62191;51.548;5.688;2023-02-11T16:14:33;8.47;;;4.87;;
73852;SDS011;62191;51.548;5.688;2023-02-11T16:17:11;10.77;;;5.73;;
73852;SDS011;62191;51.548;5.688;2023-02-11T16:19:46;14.67;;;6.17;;
73852;SDS011;62191;51.548;5.688;2023-02-11T16:22:16;10.03;;;5.60;;
73852;SDS011;62191;51.548;5.688;2023-02-11T16:24:46;11.37;;;4.33;;
73852;SDS011;62191;51.548;5.688;2023-02-11T16:28:00;14.10;;;7.60;;
73852;SDS011;62191;51.548;5.688;2023-02-11T16:29:47;10.27;;;4.80;;
73852;SDS011;62191;51.548;5.688;2023-02-11T16:32:21;14.10;;;6.07;;
73852;SDS011;62191;51.548;5.688;2023-02-11T16:34:45;9.97;;;4.80;;
73852;SDS011;62191;51.548;5.688;2023-02-11T16:37:12;12.93;;;6.10;;
73852;SDS011;62191;51.548;5.688;2023-02-11T16:39:40;10.23;;;5.10;;
73852;SDS011;62191;51.548;5.688;2023-02-11T16:42:08;12.93;;;5.57;;
73852;SDS011;62191;51.548;5.688;2023-02-11T16:44:38;15.47;;;5.20;;
73852;SDS011;62191;51.548;5.688;2023-02-11T16:47:05;11.70;;;5.10;;
73852;SDS011;62191;51.548;5.688;2023-02-11T16:49:36;15.77;;;5.73;;
73852;SDS011;62191;51.548;5.688;2023-02-11T16:52:05;13.17;;;6.07;;
73852;SDS011;62191;51.548;5.688;2023-02-11T16:54:34;11.50;;;5.63;;
73852;SDS011;62191;51.548;5.688;2023-02-11T16:57:04;12.03;;;5.93;;
73852;SDS011;62191;51.548;5.688;2023-02-11T16:59:41;11.60;;;6.23;;
73852;SDS011;62191;51.548;5.688;2023-02-11T17:02:15;12.10;;;4.83;;
73852;SDS011;62191;51.548;5.688;2023-02-11T17:04:39;9.73;;;5.10;;
73852;SDS011;62191;51.548;5.688;2023-02-11T17:07:07;14.30;;;4.83;;
73852;SDS011;62191;51.548;5.688;2023-02-11T17:09:34;10.70;;;4.73;;